createdAt,value
2023-05-09T00:01:46.420Z,7.81
2023-05-09T00:04:12.796Z,7.72
2023-05-09T00:06:39.113Z,7.64
2023-05-09T00:09:05.188Z,7.60
2023-05-09T00:11:31.605Z,7.73
2023-05-09T00:13:57.862Z,7.65
2023-05-09T00:16:24.413Z,7.65
2023-05-09T00:18:50.521Z,7.62
2023-05-09T00:21:16.864Z,7.71
2023-05-09T00:23:42.935Z,7.53
2023-05-09T00:26:09.755Z,7.47
2023-05-09T00:28:36.652Z,7.47
2023-05-09T00:31:04.755Z,7.45
2023-05-09T00:33:30.840Z,7.37
2023-05-09T00:35:57.322Z,7.31
2023-05-09T00:38:23.588Z,7.32
2023-05-09T00:40:50.062Z,7.25
2023-05-09T00:43:16.734Z,7.21
2023-05-09T00:45:44.833Z,7.19
2023-05-09T00:48:11.193Z,7.17
2023-05-09T00:50:37.673Z,7.11
2023-05-09T00:53:04.402Z,7.12
2023-05-09T00:55:31.589Z,7.13
2023-05-09T00:57:58.039Z,7.15
2023-05-09T01:00:24.631Z,7.20
2023-05-09T01:02:54.248Z,7.15
2023-05-09T01:05:24.354Z,7.05
2023-05-09T01:08:06.678Z,7.15
2023-05-09T01:11:03.279Z,7.09
2023-05-09T01:14:05.871Z,7.27
2023-05-09T01:16:49.324Z,7.51
2023-05-09T01:19:40.280Z,7.58
2023-05-09T01:22:08.451Z,7.47
2023-05-09T01:24:59.465Z,7.41
2023-05-09T01:28:03.505Z,7.35
2023-05-09T01:30:31.188Z,7.49
2023-05-09T01:33:01.240Z,7.61
2023-05-09T01:35:30.777Z,7.62
2023-05-09T01:37:58.651Z,7.63
2023-05-09T01:40:30.825Z,7.66
2023-05-09T01:43:01.225Z,7.63
2023-05-09T01:45:28.584Z,7.64
2023-05-09T01:47:57.084Z,7.49
2023-05-09T01:50:24.439Z,7.36
2023-05-09T01:52:54.230Z,7.36
2023-05-09T01:55:24.865Z,7.36
2023-05-09T01:57:53.235Z,7.12
2023-05-09T02:00:20.497Z,6.99
2023-05-09T02:02:47.743Z,6.86
2023-05-09T02:05:16.977Z,6.82
2023-05-09T02:07:45.975Z,6.82
2023-05-09T02:10:14.620Z,6.72
2023-05-09T02:12:41.247Z,6.73
2023-05-09T02:15:08.184Z,6.72
2023-05-09T02:17:39.694Z,6.81
2023-05-09T02:20:09.107Z,6.76
2023-05-09T02:22:35.999Z,6.71
2023-05-09T02:25:04.167Z,6.67
2023-05-09T02:27:33.211Z,6.65
2023-05-09T02:30:03.357Z,6.83
2023-05-09T02:32:33.250Z,6.96
2023-05-09T02:35:01.155Z,7.02
2023-05-09T02:37:27.899Z,6.85
2023-05-09T02:39:54.796Z,6.76
2023-05-09T02:42:25.806Z,6.68
2023-05-09T02:44:53.019Z,6.67
2023-05-09T02:47:19.926Z,6.60
2023-05-09T02:49:47.165Z,6.59
2023-05-09T02:52:14.117Z,6.84
2023-05-09T02:54:40.225Z,7.08
2023-05-09T02:57:06.650Z,6.87
2023-05-09T02:59:32.941Z,6.78
2023-05-09T03:02:01.742Z,6.71
2023-05-09T03:04:28.834Z,6.59
2023-05-09T03:06:55.479Z,6.56
2023-05-09T03:09:21.768Z,6.57
2023-05-09T03:11:49.405Z,6.70
2023-05-09T03:14:15.569Z,6.64
2023-05-09T03:16:42.066Z,6.85
2023-05-09T03:19:17.940Z,6.69
2023-05-09T03:21:44.301Z,6.57
2023-05-09T03:24:10.470Z,6.57
2023-05-09T03:26:36.864Z,6.51
2023-05-09T03:29:03.202Z,6.43
2023-05-09T03:31:29.710Z,6.38
2023-05-09T03:33:55.905Z,6.36
2023-05-09T03:36:22.563Z,6.44
2023-05-09T03:38:49.333Z,6.48
2023-05-09T03:41:17.897Z,6.49
2023-05-09T03:43:46.457Z,6.55
2023-05-09T03:46:12.880Z,6.56
2023-05-09T03:48:39.481Z,6.67
2023-05-09T03:51:06.450Z,6.78
2023-05-09T03:53:36.393Z,6.83
2023-05-09T03:56:02.845Z,6.87
2023-05-09T03:58:32.827Z,7.12
2023-05-09T04:00:59.944Z,7.39
2023-05-09T04:03:26.221Z,7.57
2023-05-09T04:05:54.233Z,7.75
2023-05-09T04:08:27.972Z,7.85
2023-05-09T04:10:54.331Z,7.88
2023-05-09T04:13:21.083Z,8.00
2023-05-09T04:15:47.448Z,8.10
2023-05-09T04:18:13.834Z,8.19
2023-05-09T04:20:40.240Z,8.23
2023-05-09T04:23:06.440Z,8.32
2023-05-09T04:25:34.771Z,8.41
2023-05-09T04:28:01.944Z,8.45
2023-05-09T04:30:28.861Z,8.55
2023-05-09T04:32:55.717Z,8.46
2023-05-09T04:35:22.680Z,8.40
2023-05-09T04:37:51.455Z,8.45
2023-05-09T04:40:18.358Z,8.44
2023-05-09T04:43:10.858Z,8.55
2023-05-09T04:45:37.342Z,8.63
2023-05-09T04:48:03.780Z,8.69
2023-05-09T04:50:30.563Z,8.73
2023-05-09T04:52:56.785Z,8.94
2023-05-09T04:55:23.586Z,8.97
2023-05-09T04:57:50.913Z,9.08
2023-05-09T05:00:18.600Z,9.15
2023-05-09T05:02:47.160Z,9.29
2023-05-09T05:05:14.319Z,9.36
2023-05-09T05:07:42.579Z,9.45
2023-05-09T05:10:12.744Z,9.56
2023-05-09T05:12:41.648Z,9.65
2023-05-09T05:15:11.582Z,9.72
2023-05-09T05:17:39.083Z,9.83
2023-05-09T05:20:09.774Z,9.90
2023-05-09T05:22:40.135Z,9.97
2023-05-09T05:25:07.374Z,10.05
2023-05-09T05:27:34.925Z,10.22
2023-05-09T05:30:01.624Z,10.30
2023-05-09T05:32:28.210Z,10.37
2023-05-09T05:34:54.888Z,10.49
2023-05-09T05:37:21.219Z,10.57
2023-05-09T05:39:47.959Z,10.76
2023-05-09T05:42:14.091Z,10.79
2023-05-09T05:44:40.650Z,12.62
2023-05-09T05:47:08.150Z,17.27
2023-05-09T05:49:34.544Z,20.28
2023-05-09T05:52:00.673Z,22.35
2023-05-09T05:54:27.517Z,23.38
2023-05-09T05:56:54.063Z,24.65
2023-05-09T05:59:20.530Z,24.97
2023-05-09T06:01:46.849Z,24.68
2023-05-09T06:04:13.744Z,25.02
2023-05-09T06:06:41.793Z,25.11
2023-05-09T06:09:08.169Z,24.66
2023-05-09T06:11:34.902Z,25.13
2023-05-09T06:14:03.017Z,24.93
2023-05-09T06:16:29.356Z,25.07
2023-05-09T06:18:56.304Z,25.18
2023-05-09T06:21:22.827Z,25.85
2023-05-09T06:24:05.912Z,26.14
2023-05-09T06:26:34.695Z,26.37
2023-05-09T06:29:01.208Z,25.29
2023-05-09T06:31:27.347Z,25.19
2023-05-09T06:33:53.826Z,24.83
2023-05-09T06:36:19.965Z,24.38
2023-05-09T06:38:46.383Z,24.29
2023-05-09T06:41:12.515Z,24.83
2023-05-09T06:43:39.133Z,25.08
2023-05-09T06:46:05.255Z,24.96
2023-05-09T06:48:31.685Z,25.00
2023-05-09T06:50:57.778Z,24.62
2023-05-09T06:53:24.206Z,24.46
2023-05-09T06:55:50.327Z,24.84
2023-05-09T06:58:16.759Z,25.23
2023-05-09T07:00:42.890Z,25.27
2023-05-09T07:03:09.934Z,25.10
2023-05-09T07:05:36.076Z,24.66
2023-05-09T07:08:03.333Z,24.60
2023-05-09T07:10:29.669Z,24.92
2023-05-09T07:12:56.222Z,23.83
2023-05-09T07:15:32.813Z,24.31
2023-05-09T07:18:07.100Z,24.47
2023-05-09T07:20:33.271Z,24.18
2023-05-09T07:22:59.809Z,24.13
2023-05-09T07:25:25.968Z,23.95
2023-05-09T07:27:52.430Z,24.30
2023-05-09T07:30:18.584Z,23.73
2023-05-09T07:32:44.995Z,23.59
2023-05-09T07:35:11.062Z,23.47
2023-05-09T07:37:37.474Z,23.62
2023-05-09T07:40:05.352Z,23.83
2023-05-09T07:42:32.378Z,23.95
2023-05-09T07:44:59.593Z,24.18
2023-05-09T07:47:26.142Z,24.28
2023-05-09T07:49:52.307Z,24.21
2023-05-09T07:52:18.643Z,23.94
2023-05-09T07:54:44.869Z,23.92
2023-05-09T07:57:11.176Z,24.26
2023-05-09T07:59:37.302Z,24.76
2023-05-09T08:02:03.693Z,24.52
2023-05-09T08:04:29.856Z,24.53
2023-05-09T08:06:57.004Z,24.29
2023-05-09T08:09:23.110Z,24.29
2023-05-09T08:11:49.617Z,24.34
2023-05-09T08:14:15.809Z,23.45
2023-05-09T08:16:42.678Z,23.75
2023-05-09T08:19:09.163Z,23.70
2023-05-09T08:21:35.755Z,23.31
2023-05-09T08:24:01.886Z,23.14
2023-05-09T08:26:28.295Z,22.87
2023-05-09T08:28:54.614Z,21.61
2023-05-09T08:31:21.166Z,21.31
2023-05-09T08:33:47.337Z,21.27
2023-05-09T08:36:13.866Z,21.09
2023-05-09T08:38:40.744Z,20.79
2023-05-09T08:41:07.317Z,20.77
2023-05-09T08:43:35.493Z,20.30
2023-05-09T08:46:07.843Z,20.78
2023-05-09T08:48:37.979Z,21.69
2023-05-09T08:51:05.412Z,21.87
2023-05-09T08:53:32.232Z,22.29
2023-05-09T08:56:00.947Z,22.39
2023-05-09T08:58:27.644Z,22.05
2023-05-09T09:00:57.554Z,21.91
2023-05-09T09:03:26.565Z,22.31
2023-05-09T09:05:54.132Z,22.44
2023-05-09T09:08:22.189Z,22.31
2023-05-09T09:10:48.916Z,21.98
2023-05-09T09:13:17.334Z,21.49
2023-05-09T09:15:46.264Z,22.15
2023-05-09T09:18:19.925Z,22.10
2023-05-09T09:20:56.050Z,21.59
2023-05-09T09:23:24.792Z,20.58
2023-05-09T09:26:01.647Z,20.94
2023-05-09T09:28:27.967Z,20.88
2023-05-09T09:30:54.352Z,20.67
2023-05-09T09:33:21.767Z,20.85
2023-05-09T09:35:50.381Z,20.55
2023-05-09T09:38:21.353Z,19.56
2023-05-09T09:40:50.720Z,20.24
2023-05-09T09:43:17.144Z,20.47
2023-05-09T09:45:49.152Z,20.29
2023-05-09T09:48:15.685Z,20.45
2023-05-09T09:50:42.162Z,20.57
2023-05-09T09:53:08.331Z,20.55
2023-05-09T09:55:35.015Z,20.11
2023-05-09T09:58:01.147Z,19.65
2023-05-09T10:00:28.005Z,19.62
2023-05-09T10:02:58.622Z,19.91
2023-05-09T10:05:29.513Z,20.11
2023-05-09T10:08:00.386Z,20.35
2023-05-09T10:10:28.732Z,20.32
2023-05-09T10:12:58.008Z,20.41
2023-05-09T10:15:26.349Z,20.47
2023-05-09T10:17:55.694Z,20.41
2023-05-09T10:20:22.782Z,19.39
2023-05-09T10:22:53.190Z,19.27
2023-05-09T10:25:21.488Z,18.84
2023-05-09T10:27:48.614Z,18.83
2023-05-09T10:30:21.714Z,18.96
2023-05-09T10:32:51.706Z,18.92
2023-05-09T10:35:21.107Z,18.97
2023-05-09T10:37:47.493Z,18.58
2023-05-09T10:40:14.919Z,18.88
2023-05-09T10:42:44.312Z,19.25
2023-05-09T10:45:11.833Z,19.40
2023-05-09T10:47:41.582Z,19.49
2023-05-09T10:50:11.740Z,19.60
2023-05-09T10:53:16.410Z,19.53
2023-05-09T10:55:46.125Z,19.53
2023-05-09T10:58:25.563Z,19.39
2023-05-09T11:00:57.040Z,19.28
2023-05-09T11:03:25.307Z,19.35
2023-05-09T11:05:54.623Z,19.64
2023-05-09T11:08:29.431Z,19.72
2023-05-09T11:10:59.788Z,19.70
2023-05-09T11:13:31.705Z,19.69
2023-05-09T11:16:01.224Z,19.99
2023-05-09T11:18:32.063Z,19.98
2023-05-09T11:20:59.184Z,19.55
2023-05-09T11:23:26.610Z,19.60
2023-05-09T11:26:03.710Z,19.56
2023-05-09T11:28:32.845Z,19.86
2023-05-09T11:31:14.459Z,19.70
2023-05-09T11:33:44.138Z,19.78
2023-05-09T11:36:31.589Z,19.80
2023-05-09T11:39:07.911Z,19.98
2023-05-09T11:41:46.127Z,20.02
2023-05-09T11:44:21.259Z,20.00
2023-05-09T11:46:48.681Z,20.11
2023-05-09T11:49:15.221Z,20.21
2023-05-09T11:51:41.930Z,20.03
2023-05-09T11:54:10.605Z,20.10
2023-05-09T11:56:40.113Z,19.94
2023-05-09T11:59:07.751Z,19.75
2023-05-09T12:04:02.575Z,19.73
2023-05-09T12:06:29.341Z,20.03
2023-05-09T12:08:59.192Z,19.93
2023-05-09T12:11:25.524Z,20.02
2023-05-09T12:13:52.373Z,20.04
2023-05-09T12:16:20.626Z,20.01
2023-05-09T12:18:49.576Z,20.01
2023-05-09T12:21:17.793Z,20.03
2023-05-09T12:23:47.468Z,20.24
2023-05-09T12:26:15.063Z,20.19
2023-05-09T12:28:42.899Z,20.06
2023-05-09T12:31:09.805Z,20.03
2023-05-09T12:33:38.176Z,20.13
2023-05-09T12:36:11.590Z,20.54
2023-05-09T12:38:38.593Z,20.60
2023-05-09T12:41:18.805Z,20.69
2023-05-09T12:43:57.620Z,20.64
2023-05-09T12:46:24.442Z,20.19
2023-05-09T12:48:51.417Z,20.07
2023-05-09T12:51:21.841Z,19.89
2023-05-09T12:53:48.617Z,19.96
2023-05-09T12:56:16.820Z,20.30
2023-05-09T12:58:54.084Z,20.60
2023-05-09T13:01:28.147Z,20.68
2023-05-09T13:04:03.172Z,20.40
2023-05-09T13:06:30.086Z,20.29
2023-05-09T13:09:01.879Z,20.63
2023-05-09T13:11:29.074Z,20.62
2023-05-09T13:13:55.724Z,20.35
2023-05-09T13:16:22.156Z,20.49
2023-05-09T13:18:48.846Z,20.25
2023-05-09T13:21:14.994Z,20.05
2023-05-09T13:23:41.520Z,20.23
2023-05-09T13:26:08.159Z,20.45
2023-05-09T13:28:34.784Z,20.66
2023-05-09T13:31:02.175Z,20.86
2023-05-09T13:33:28.625Z,20.76
2023-05-09T13:36:07.215Z,20.87
2023-05-09T13:38:38.051Z,20.68
2023-05-09T13:41:04.255Z,20.38
2023-05-09T13:43:30.641Z,20.60
2023-05-09T13:45:56.896Z,20.37
2023-05-09T13:48:23.536Z,20.62
2023-05-09T13:50:50.380Z,20.33
2023-05-09T13:53:16.898Z,20.09
2023-05-09T13:55:43.656Z,20.45
2023-05-09T13:58:10.772Z,20.25
2023-05-09T14:00:36.950Z,20.10
2023-05-09T14:03:03.570Z,20.19
2023-05-09T14:05:32.859Z,20.25
2023-05-09T14:08:00.832Z,20.37
2023-05-09T14:10:27.056Z,20.38
2023-05-09T14:12:54.188Z,20.43
2023-05-09T14:15:20.479Z,20.53
2023-05-09T14:17:47.318Z,20.35
2023-05-09T14:20:15.164Z,20.44
2023-05-09T14:22:41.985Z,20.72
2023-05-09T14:25:08.361Z,20.56
2023-05-09T14:27:37.783Z,20.08
2023-05-09T14:30:04.761Z,19.86
2023-05-09T14:32:31.998Z,19.76
2023-05-09T14:34:58.205Z,19.98
2023-05-09T14:37:24.824Z,20.04
2023-05-09T14:39:51.011Z,20.12
2023-05-09T14:42:18.981Z,19.85
2023-05-09T14:44:46.530Z,19.69
2023-05-09T14:47:13.042Z,19.82
2023-05-09T14:49:39.399Z,19.85
2023-05-09T14:52:05.848Z,19.91
2023-05-09T14:54:32.305Z,19.90
2023-05-09T14:57:01.169Z,19.75
2023-05-09T14:59:27.455Z,19.81
2023-05-09T15:01:54.273Z,19.77
2023-05-09T15:04:20.672Z,19.45
2023-05-09T15:06:47.245Z,19.49
2023-05-09T15:09:14.071Z,19.55
2023-05-09T15:11:47.630Z,19.53
2023-05-09T15:14:15.672Z,19.51
2023-05-09T15:16:42.277Z,19.37
2023-05-09T15:19:08.571Z,19.42
2023-05-09T15:21:35.310Z,19.40
2023-05-09T15:24:01.597Z,19.35
2023-05-09T15:26:28.177Z,19.30
2023-05-09T15:28:54.293Z,19.32
2023-05-09T15:31:22.568Z,19.34
2023-05-09T15:33:48.693Z,19.36
2023-05-09T15:36:15.064Z,19.26
2023-05-09T15:38:41.494Z,19.23
2023-05-09T15:41:08.492Z,19.12
2023-05-09T15:43:34.589Z,19.13
2023-05-09T15:46:01.857Z,19.15
2023-05-09T15:48:27.976Z,19.09
2023-05-09T15:50:54.467Z,18.98
2023-05-09T15:53:22.405Z,19.00
2023-05-09T15:55:49.083Z,18.97
2023-05-09T15:58:15.724Z,18.83
2023-05-09T16:00:42.232Z,18.88
2023-05-09T16:03:08.464Z,18.80
2023-05-09T16:05:35.016Z,18.78
2023-05-09T16:08:01.444Z,18.67
2023-05-09T16:10:27.873Z,18.73
2023-05-09T16:12:54.020Z,18.73
2023-05-09T16:15:20.783Z,18.73
2023-05-09T16:17:46.965Z,18.78
2023-05-09T16:20:13.814Z,18.72
2023-05-09T16:22:40.637Z,18.67
2023-05-09T16:25:07.556Z,18.60
2023-05-09T16:27:33.844Z,18.55
2023-05-09T16:30:00.668Z,18.52
2023-05-09T16:32:27.023Z,18.49
2023-05-09T16:34:53.787Z,18.49
2023-05-09T16:37:20.085Z,18.59
2023-05-09T16:39:46.564Z,18.54
2023-05-09T16:42:14.108Z,18.45
2023-05-09T16:44:40.645Z,18.41
2023-05-09T16:47:06.884Z,18.40
2023-05-09T16:49:33.761Z,18.40
2023-05-09T16:51:59.963Z,18.41
2023-05-09T16:54:26.626Z,18.32
2023-05-09T16:56:53.357Z,18.22
2023-05-09T16:59:20.124Z,18.17
2023-05-09T17:01:47.016Z,18.07
2023-05-09T17:04:14.077Z,18.04
2023-05-09T17:06:40.379Z,18.00
2023-05-09T17:09:07.354Z,18.00
2023-05-09T17:11:33.555Z,18.03
2023-05-09T17:14:02.228Z,18.00
2023-05-09T17:16:28.774Z,17.89
2023-05-09T17:18:55.640Z,17.95
2023-05-09T17:21:24.153Z,17.81
2023-05-09T17:23:53.226Z,17.81
2023-05-09T17:26:20.572Z,17.73
2023-05-09T17:28:48.103Z,17.75
2023-05-09T17:31:14.351Z,17.68
2023-05-09T17:33:42.717Z,17.57
2023-05-09T17:36:09.128Z,17.47
2023-05-09T17:38:35.960Z,17.41
2023-05-09T17:41:03.474Z,17.35
2023-05-09T17:43:31.222Z,17.31
2023-05-09T17:45:58.095Z,17.23
2023-05-09T17:48:24.962Z,17.15
2023-05-09T17:50:51.255Z,17.09
2023-05-09T17:53:18.250Z,17.04
2023-05-09T17:55:44.637Z,16.95
2023-05-09T17:58:11.396Z,16.91
2023-05-09T18:00:37.942Z,16.80
2023-05-09T18:03:04.591Z,16.74
2023-05-09T18:05:31.396Z,16.65
2023-05-09T18:08:00.473Z,16.55
2023-05-09T18:10:28.017Z,16.48
2023-05-09T18:12:54.820Z,16.35
2023-05-09T18:15:21.213Z,16.28
2023-05-09T18:17:48.753Z,16.24
2023-05-09T18:20:15.437Z,16.13
2023-05-09T18:22:42.204Z,16.09
2023-05-09T18:25:09.347Z,16.03
2023-05-09T18:27:36.225Z,15.97
2023-05-09T18:30:06.518Z,15.89
2023-05-09T18:32:34.804Z,15.81
2023-05-09T18:35:01.302Z,15.76
2023-05-09T18:37:28.318Z,15.65
2023-05-09T18:39:54.666Z,15.61
2023-05-09T18:42:21.464Z,15.54
2023-05-09T18:44:47.784Z,15.51
2023-05-09T18:47:15.104Z,15.44
2023-05-09T18:49:41.837Z,15.36
2023-05-09T18:52:10.361Z,15.35
2023-05-09T18:54:39.182Z,15.27
2023-05-09T18:57:06.058Z,15.17
2023-05-09T18:59:32.566Z,15.19
2023-05-09T19:01:59.280Z,15.10
2023-05-09T19:04:26.223Z,15.07
2023-05-09T19:06:53.212Z,15.07
2023-05-09T19:09:19.709Z,14.98
2023-05-09T19:11:49.133Z,14.93
2023-05-09T19:14:15.900Z,14.94
2023-05-09T19:16:42.590Z,14.91
2023-05-09T19:19:09.116Z,14.85
2023-05-09T19:21:36.146Z,14.83
2023-05-09T19:24:04.129Z,14.81
2023-05-09T19:26:30.867Z,14.78
2023-05-09T19:28:57.484Z,14.78
2023-05-09T19:31:24.878Z,14.75
2023-05-09T19:33:51.385Z,14.76
2023-05-09T19:36:18.776Z,14.71
2023-05-09T19:38:45.609Z,14.67
2023-05-09T19:41:13.307Z,14.64
2023-05-09T19:43:39.820Z,14.60
2023-05-09T19:46:07.086Z,14.53
2023-05-09T19:48:35.250Z,14.51
2023-05-09T19:51:07.531Z,14.49
2023-05-09T19:53:34.114Z,14.48
2023-05-09T19:56:00.744Z,14.46
2023-05-09T19:58:27.277Z,14.43
2023-05-09T20:00:56.167Z,14.40
2023-05-09T20:03:22.966Z,14.39
2023-05-09T20:05:50.443Z,14.36
2023-05-09T20:08:16.951Z,14.33
2023-05-09T20:10:43.839Z,14.33
2023-05-09T20:13:10.471Z,14.33
2023-05-09T20:15:39.242Z,14.29
2023-05-09T20:18:06.792Z,14.24
2023-05-09T20:20:33.644Z,14.24
2023-05-09T20:23:00.142Z,14.22
2023-05-09T20:25:27.076Z,14.16
2023-05-09T20:27:53.462Z,14.14
2023-05-09T20:30:22.296Z,14.06
2023-05-09T20:32:48.682Z,14.03
2023-05-09T20:35:15.598Z,14.03
2023-05-09T20:37:42.425Z,14.01
2023-05-09T20:40:09.436Z,13.97
2023-05-09T20:42:35.873Z,13.97
2023-05-09T20:45:03.130Z,13.94
2023-05-09T20:47:29.652Z,13.87
2023-05-09T20:49:58.407Z,13.89
2023-05-09T20:52:25.420Z,13.81
2023-05-09T20:54:52.179Z,13.78
2023-05-09T20:57:18.870Z,13.81
2023-05-09T20:59:45.658Z,13.72
2023-05-09T21:02:13.057Z,13.73
2023-05-09T21:04:40.459Z,13.70
2023-05-09T21:07:09.277Z,13.68
2023-05-09T21:09:36.478Z,13.69
2023-05-09T21:12:04.082Z,13.64
2023-05-09T21:14:31.432Z,13.62
2023-05-09T21:16:58.062Z,13.65
2023-05-09T21:19:24.865Z,13.55
2023-05-09T21:21:51.141Z,13.59
2023-05-09T21:24:17.753Z,13.52
2023-05-09T21:26:44.241Z,13.54
2023-05-09T21:29:11.229Z,13.50
2023-05-09T21:31:41.062Z,13.50
2023-05-09T21:34:09.749Z,13.51
2023-05-09T21:36:37.723Z,13.45
2023-05-09T21:39:09.031Z,13.46
2023-05-09T21:41:41.661Z,13.36
2023-05-09T21:44:10.476Z,13.39
2023-05-09T21:46:40.695Z,13.35
2023-05-09T21:49:10.459Z,13.29
2023-05-09T21:51:36.634Z,13.32
2023-05-09T21:54:03.240Z,13.32
2023-05-09T21:56:29.349Z,13.30
2023-05-09T21:58:55.706Z,13.30
2023-05-09T22:01:34.170Z,13.23
2023-05-09T22:04:01.287Z,13.26
2023-05-09T22:06:27.572Z,13.24
2023-05-09T22:08:53.997Z,13.21
2023-05-09T22:11:20.460Z,13.18
2023-05-09T22:13:46.899Z,13.10
2023-05-09T22:16:13.142Z,13.05
2023-05-09T22:18:39.915Z,13.06
2023-05-09T22:21:06.292Z,13.06
2023-05-09T22:23:32.775Z,13.00
2023-05-09T22:25:58.904Z,13.00
2023-05-09T22:28:25.257Z,12.95
2023-05-09T22:30:51.541Z,12.97
2023-05-09T22:33:17.928Z,12.94
2023-05-09T22:35:45.230Z,12.93
2023-05-09T22:38:11.678Z,12.88
2023-05-09T22:40:37.905Z,12.83
2023-05-09T22:43:04.774Z,12.88
2023-05-09T22:45:30.890Z,12.82
2023-05-09T22:47:57.361Z,12.80
2023-05-09T22:50:25.138Z,12.76
2023-05-09T22:52:51.731Z,12.74
2023-05-09T22:55:18.587Z,12.66
2023-05-09T22:57:45.128Z,12.66
2023-05-09T23:00:12.021Z,12.69
2023-05-09T23:02:38.429Z,12.65
2023-05-09T23:05:05.561Z,12.64
2023-05-09T23:07:32.216Z,12.60
2023-05-09T23:09:58.641Z,12.57
2023-05-09T23:12:25.028Z,12.57
2023-05-09T23:14:51.181Z,12.51
2023-05-09T23:17:17.779Z,12.51
2023-05-09T23:19:45.191Z,12.48
2023-05-09T23:22:11.688Z,12.42
2023-05-09T23:24:37.813Z,12.43
2023-05-09T23:27:04.357Z,12.33
2023-05-09T23:29:30.514Z,12.24
2023-05-09T23:31:56.944Z,12.19
2023-05-09T23:34:23.078Z,12.17
2023-05-09T23:36:49.393Z,12.10
2023-05-09T23:39:15.568Z,12.07
2023-05-09T23:41:42.405Z,12.08
2023-05-09T23:44:08.674Z,12.05
2023-05-09T23:46:35.135Z,12.00
2023-05-09T23:49:01.275Z,11.96
2023-05-09T23:51:27.702Z,12.02
2023-05-09T23:53:53.704Z,12.01
2023-05-09T23:56:20.592Z,12.01
2023-05-09T23:58:46.634Z,11.98
